Date,TemperatureHighF,TemperatureAvgF,TemperatureLowF,DewpointHighF,DewpointAvgF,DewpointLowF,HumidityHigh,HumidityAvg,HumidityLow,PressureMaxIn,PressureMinIn,WindSpeedMaxMPH,WindSpeedAvgMPH,GustSpeedMaxMPH,PrecipitationSumIn
2013-2-10,54.5,52.8,50.5,51.5,48.3,45.3,99,85,72,29.83,29.76,3,0,5,0.48
2013-2-11,61.3,52.6,46.9,54.8,49.9,45.8,99,91,60,29.91,29.79,8,2,19,0.01
2013-2-12,73.8,56.0,43.9,60.3,49.0,33.6,99,82,30,29.87,29.62,10,3,25,0.02
2013-2-13,64.8,46.5,31.3,44.5,38.5,31.0,99,78,39,29.96,29.83,8,2,17,0.00
2013-2-14,73.9,53.4,28.9,50.3,38.9,28.7,99,66,30,29.91,29.78,7,2,14,0.00
2013-2-15,59.4,45.0,31.3,45.0,34.7,27.2,99,68,54,30.19,29.88,8,2,16,0.00
2013-2-16,67.1,46.7,25.7,37.9,31.6,24.2,99,61,30,30.23,30.00,7,1,17,0.00
2013-2-17,72.0,54.9,30.0,56.2,40.9,29.1,99,63,35,30.00,29.75,12,4,26,0.00
2013-2-18,81.9,66.8,49.6,65.6,52.5,30.6,99,67,21,29.92,29.64,12,6,22,0.00
2013-2-19,66.4,53.7,30.9,38.4,34.2,29.0,97,51,28,30.09,29.90,10,3,21,0.00
2013-2-20,59.0,52.3,49.5,58.7,45.7,36.0,99,80,47,29.93,29.47,11,4,20,0.07
2013-2-21,76.5,62.1,38.7,67.0,44.6,30.7,99,60,20,29.68,29.39,14,5,30,0.04
2013-2-22,60.1,44.8,35.6,42.5,36.7,31.1,99,76,47,29.88,29.65,6,2,15,0.00
2013-2-23,71.1,49.4,30.7,46.0,37.5,30.5,99,68,37,29.86,29.69,8,1,17,0.00
2013-2-24,75.7,54.7,29.1,62.5,47.6,28.9,99,80,50,29.73,29.39,11,4,21,0.00
2013-2-25,61.3,53.6,43.3,60.9,41.3,30.4,99,66,32,29.64,29.37,24,8,47,0.02
2013-2-26,68.7,49.8,36.1,39.5,35.0,31.2,89,60,30,29.75,29.63,8,3,20,0.00
2013-2-27,63.9,49.5,35.1,39.4,31.4,23.3,96,52,29,30.04,29.66,10,3,21,0.00
2013-2-28,63.3,45.1,28.0,35.4,29.4,23.6,93,58,30,30.14,29.66,8,2,21,0.00
2013-3-1,70.0,49.1,25.0,38.1,29.7,23.2,99,54,24,29.72,29.56,9,1,17,0.00
2013-3-2,64.2,46.5,29.1,36.2,32.2,26.2,95,61,33,29.86,29.68,10,2,20,0.00
2013-3-3,77.5,55.5,27.3,47.3,37.2,26.8,99,57,28,29.73,29.33,12,4,24,0.00
2013-3-4,90.0,69.7,54.9,57.7,50.9,45.1,90,56,27,29.69,29.49,10,4,24,0.00
2013-3-5,68.4,53.3,29.5,55.0,27.7,14.9,74,42,15,30.18,29.55,13,5,29,0.00
2013-3-6,64.6,44.1,23.0,27.5,22.3,16.3,80,47,20,30.25,30.02,5,1,13,0.00
2013-3-7,73.6,56.9,32.2,58.2,45.8,24.2,90,68,46,30.05,29.90,10,4,18,0.00
2013-3-8,63.1,59.5,55.9,62.9,59.1,55.7,99,98,90,29.97,29.81,8,3,17,0.06
2013-3-9,72.3,65.5,61.3,72.1,65.3,61.1,99,99,99,29.82,29.46,11,5,22,0.43
2013-3-10,64.2,56.6,40.3,60.9,46.6,37.3,99,72,45,29.93,29.57,11,3,21,0.17
2013-3-11,69.3,47.4,28.6,39.2,33.6,28.3,99,67,28,29.98,29.81,8,2,17,0.00
2013-3-12,82.4,57.1,29.3,48.5,39.7,28.9,99,60,25,30.08,29.86,10,2,17,0.00
2013-3-13,77.2,58.1,33.6,48.2,42.1,33.4,99,60,34,30.25,30.08,10,2,17,0.00
2013-3-14,79.9,62.9,42.6,57.7,50.4,39.1,99,67,39,30.18,30.01,11,3,20,0.00
2013-3-15,81.7,63.9,53.2,60.5,54.3,46.5,99,75,39,30.03,29.79,11,4,21,0.00
2013-3-16,85.3,70.6,55.2,67.6,61.2,53.8,99,75,46,29.81,29.54,11,6,27,0.00
2013-3-17,86.9,71.8,60.3,68.7,65.8,60.0,99,84,53,29.63,29.47,11,3,27,0.00
2013-3-18,85.3,64.9,55.2,69.4,59.1,49.2,99,84,47,29.78,29.53,8,2,16,0.00
2013-3-19,81.7,53.4,38.7,66.5,50.1,38.4,99,90,60,29.87,29.68,9,2,22,0.32
2013-3-20,71.6,56.2,46.8,55.7,48.5,40.5,99,81,34,30.05,29.85,13,2,24,0.11
2013-3-21,70.5,60.3,45.0,65.6,58.5,44.7,99,94,81,29.85,29.43,9,3,15,0.00
2013-3-22,82.0,69.2,51.3,72.0,63.7,50.5,99,84,63,29.62,29.44,8,3,17,0.00
2013-3-23,85.6,60.2,48.2,69.8,56.6,47.9,99,90,51,29.62,29.41,5,2,14,0.00
2013-3-24,59.0,49.3,35.8,56.8,35.7,27.7,99,63,35,29.98,29.51,14,5,25,0.00
2013-3-25,62.6,44.7,29.1,30.6,25.9,22.5,96,52,26,30.19,29.97,8,2,16,0.00
2013-3-26,67.3,34.1,23.7,29.3,26.3,23.5,99,78,24,30.24,30.09,2,0,5,0.00
2013-3-27,72.3,60.9,40.1,52.8,46.9,27.4,82,61,47,30.11,29.94,11,4,21,0.00
2013-3-28,73.2,62.3,49.8,65.5,59.4,49.6,99,91,73,30.00,29.91,9,3,17,0.00
2013-3-29,78.4,67.7,57.6,65.9,62.2,57.3,99,84,63,29.98,29.86,10,4,19,0.00
2013-3-30,83.3,70.7,63.1,70.1,66.1,62.6,99,87,62,29.91,29.69,10,3,20,0.00
2013-3-31,80.1,68.7,58.6,78.0,68.1,58.4,99,98,83,29.81,29.69,8,2,17,0.19
2013-4-1,83.8,68.5,52.3,73.3,65.0,52.1,99,90,62,29.87,29.71,8,2,16,0.01
2013-4-2,70.9,65.3,49.8,70.4,65.0,49.2,99,99,99,29.83,29.57,14,2,27,0.31
2013-4-3,53.2,49.7,47.1,53.0,49.4,46.9,99,99,99,29.95,29.67,8,3,27,0.47
2013-4-4,59.4,48.4,37.0,52.2,46.0,36.6,99,92,74,30.03,29.91,9,3,17,0.00
2013-4-5,74.8,53.1,31.5,56.5,45.7,31.2,99,79,48,30.07,29.85,6,1,12,0.00
2013-4-6,81.9,65.5,49.6,67.4,59.2,49.4,99,82,59,29.87,29.65,12,4,24,0.00
2013-4-7,83.5,68.9,61.0,72.6,66.4,60.7,99,92,69,29.74,29.56,10,4,19,0.00
2013-4-8,74.5,69.0,65.8,74.1,68.7,65.6,99,99,96,29.63,29.48,11,5,24,0.00
2013-4-9,85.3,74.1,69.4,77.1,72.2,69.2,99,94,73,29.52,29.42,11,6,23,0.00
2013-4-10,73.0,55.9,40.8,72.8,54.9,40.6,99,96,80,29.78,29.46,12,4,25,0.01
2013-4-11,72.5,53.4,40.8,50.2,45.1,39.9,99,77,42,29.80,29.62,8,2,14,0.00
2013-4-12,80.8,60.2,38.1,59.2,48.1,37.7,99,70,37,29.81,29.65,9,2,17,0.00
2013-4-13,77.0,62.1,44.4,64.7,56.4,44.2,99,85,47,29.77,29.59,8,1,15,0.01
2013-4-14,92.3,72.4,53.1,74.3,66.0,52.6,99,83,50,29.62,29.40,11,3,20,0.00
2013-4-15,90.0,77.2,68.0,76.6,72.6,67.7,99,87,62,29.61,29.49,12,4,22,0.00
2013-4-16,89.6,75.6,68.2,77.1,72.2,67.7,99,90,64,29.71,29.60,11,4,21,0.00
2013-4-17,85.1,76.2,72.0,77.2,74.5,71.7,99,95,74,29.69,29.49,12,5,24,0.00
2013-4-18,73.9,60.4,47.5,73.7,55.1,41.7,99,84,57,29.93,29.45,11,4,22,0.01
2013-4-19,70.2,53.4,34.7,42.9,37.2,32.2,99,62,26,30.11,29.93,8,2,18,0.00
2013-4-20,72.5,56.1,29.5,50.1,39.8,29.2,99,59,30,30.03,29.80,7,2,12,0.00
2013-4-21,79.7,62.3,44.1,63.4,55.9,43.8,99,81,56,29.96,29.82,8,2,17,0.00
2013-4-22,85.8,70.1,52.0,69.2,63.1,51.5,99,81,55,29.90,29.67,11,3,19,0.00
2013-4-23,79.3,62.1,46.4,73.2,59.3,44.5,99,91,63,29.95,29.63,10,4,18,0.01
2013-4-24,66.2,52.4,42.1,46.3,41.7,34.2,97,69,46,30.10,29.95,12,4,21,0.00
2013-4-25,69.6,60.3,52.9,53.6,49.5,44.9,82,68,53,30.14,29.97,7,2,13,0.00
2013-4-26,79.5,68.8,58.5,76.5,67.0,49.0,99,95,60,29.97,29.80,8,2,16,0.00
2013-4-27,75.6,75.6,75.6,75.3,75.3,75.3,99,99,99,29.83,29.83,1,1,8,0.00
2013-4-28,75.6,75.6,75.6,75.3,75.3,75.3,99,99,99,29.83,29.83,1,1,8,0.00
2013-4-29,86.2,75.2,63.5,76.0,70.9,63.2,99,88,63,29.83,29.59,10,2,17,0.02
2013-4-30,85.3,71.8,58.8,74.0,67.4,58.6,99,87,66,29.66,29.54,9,2,16,0.00
2013-5-1,90.5,76.3,62.8,76.4,71.2,62.5,99,86,62,29.78,29.59,8,2,14,0.00
2013-5-2,71.2,53.6,44.8,70.3,50.8,39.0,99,90,73,30.17,29.73,14,5,26,0.00
2013-5-3,71.4,53.7,38.1,39.3,36.0,31.6,90,57,26,30.17,29.88,12,3,22,0.00
2013-5-4,86.9,59.9,32.4,46.8,39.4,32.1,99,55,22,29.88,29.69,11,2,18,0.00
2013-5-5,78.3,57.9,36.7,54.6,46.2,36.4,99,68,40,29.98,29.81,9,2,17,0.00
2013-5-6,81.0,59.9,40.5,57.4,50.4,40.2,99,75,44,29.96,29.81,4,0,9,0.00
2013-5-7,88.0,68.0,42.3,63.3,54.3,42.0,99,67,37,29.90,29.72,8,2,14,0.00
2013-5-8,86.0,72.9,60.3,72.6,67.1,58.6,99,83,63,29.83,29.69,9,3,18,0.00
2013-5-9,78.4,69.4,62.6,77.2,69.0,59.3,99,99,82,29.81,29.61,12,2,21,0.01
2013-5-10,88.7,70.0,56.8,77.6,66.3,56.6,99,89,59,29.85,29.62,11,2,27,0.00
2013-5-11,82.6,68.7,54.9,70.0,61.7,54.6,99,81,47,29.97,29.83,9,2,17,0.00
2013-5-12,83.7,65.1,48.6,63.7,56.0,48.3,99,76,39,30.09,29.94,7,1,14,0.00
2013-5-13,90.0,68.9,43.2,67.0,54.9,42.9,99,68,32,30.08,29.95,7,1,15,0.00
2013-5-14,88.2,74.5,59.2,73.8,66.7,58.9,99,79,48,30.02,29.80,10,3,19,0.00
2013-5-15,87.1,74.5,64.0,80.0,72.9,63.8,99,95,74,29.90,29.61,13,4,24,0.01
2013-5-16,92.5,76.6,63.7,82.2,74.0,63.4,99,92,65,29.73,29.53,9,4,20,0.00
2013-5-17,94.5,82.0,73.0,83.5,78.3,72.8,99,89,68,29.70,29.60,9,3,17,0.00
2013-5-18,97.3,82.0,70.5,80.3,75.1,70.3,99,82,57,29.73,29.60,11,5,21,0.00
2013-5-19,94.1,81.0,70.9,81.9,75.8,70.5,99,85,65,29.67,29.54,11,5,24,0.00
2013-5-20,93.0,81.3,71.4,80.7,76.3,71.2,99,86,65,29.66,29.51,11,5,20,0.00
2013-5-21,90.9,77.1,68.0,83.7,74.7,64.9,99,92,74,29.72,29.54,12,4,22,0.01
2013-5-22,94.1,75.4,50.5,74.1,64.9,50.3,99,74,42,29.77,29.63,6,1,11,0.00
2013-5-23,89.1,78.8,68.0,81.2,76.2,67.7,99,92,77,29.87,29.70,9,2,16,0.00
2013-5-24,82.4,72.9,65.7,80.1,72.5,61.4,99,98,91,29.94,29.81,8,2,17,0.01
2013-5-25,83.8,73.0,66.6,79.3,72.1,66.1,99,97,84,29.95,29.85,11,2,20,0.00
2013-5-26,88.9,77.6,70.5,82.4,75.8,70.3,99,95,80,29.91,29.78,9,3,17,0.00
2013-5-27,90.5,77.7,57.6,81.1,75.4,57.3,99,93,73,29.92,29.72,10,3,20,0.00
2013-5-28,90.9,79.6,71.4,80.3,75.6,71.2,99,88,69,29.93,29.80,13,5,24,0.00
2013-5-29,86.2,77.2,73.0,83.6,76.3,72.2,99,97,84,29.91,29.73,12,5,25,0.12
2013-5-30,90.9,80.5,74.1,83.1,77.8,73.9,99,92,74,29.87,29.77,11,5,24,0.00
2013-5-31,92.5,82.5,75.4,84.4,79.4,74.8,99,91,77,29.89,29.78,12,4,24,0.00
2013-6-1,97.0,84.1,75.4,85.3,79.6,75.1,99,87,66,29.95,29.79,11,3,22,0.00
2013-6-2,90.5,76.2,62.1,80.3,70.8,61.8,99,85,57,30.11,29.95,8,2,14,0.22
2013-6-3,95.4,75.2,56.7,75.0,67.0,56.4,99,79,43,30.03,29.52,6,1,11,0.00
2013-6-4,95.0,80.8,66.2,77.6,72.8,65.9,99,79,53,29.95,29.83,10,2,18,0.00
2013-6-5,94.1,81.7,69.4,78.3,73.9,69.2,99,79,52,29.95,29.79,11,3,17,0.00
2013-6-6,96.3,81.6,70.0,76.8,73.3,69.2,99,78,48,29.98,29.83,8,2,17,0.00
2013-6-7,90.0,74.9,61.0,73.4,65.4,59.6,99,76,45,30.06,29.91,7,1,12,0.00
2013-6-8,93.6,75.8,53.4,77.4,67.4,53.2,99,78,53,29.98,29.82,8,2,14,0.00
2013-6-9,91.4,81.3,69.1,80.4,76.1,68.8,99,85,65,29.99,29.87,5,1,13,0.18
2013-6-10,97.0,76.1,68.5,77.6,73.0,68.3,99,91,51,30.00,29.95,4,1,8,0.00
2013-6-11,93.6,80.3,72.7,80.1,77.0,72.2,99,91,64,30.05,29.99,8,2,13,0.00
2013-6-12,97.9,83.5,72.1,83.4,77.9,71.9,99,85,58,30.09,29.97,8,3,20,0.00
2013-6-13,98.6,84.0,70.2,83.8,77.5,69.9,99,82,56,30.10,29.96,9,2,19,0.00
2013-6-14,94.3,80.3,69.8,83.7,77.3,69.5,99,91,67,30.04,29.94,6,1,13,0.00
2013-6-15,92.8,81.9,71.2,84.5,78.4,71.0,99,90,66,30.03,29.94,5,1,12,0.02
2013-6-16,98.4,85.2,72.5,82.3,77.4,72.2,99,80,54,30.05,29.93,8,2,14,0.00
2013-6-17,99.3,85.7,74.7,83.1,77.9,72.4,99,80,54,30.05,29.88,8,2,15,0.00
2013-6-18,98.2,81.7,68.5,83.3,77.1,63.8,99,87,59,30.06,29.92,9,1,18,0.64
2013-6-19,97.9,84.5,69.1,82.5,77.6,68.8,99,82,56,30.00,29.93,8,2,16,0.00
2013-6-20,96.4,85.0,72.3,81.5,76.7,62.4,99,78,54,30.08,29.98,10,4,21,0.00
2013-6-21,97.3,85.6,65.5,80.8,76.0,59.3,99,76,48,30.11,29.99,11,4,19,0.00
2013-6-22,96.1,85.2,62.1,80.3,75.8,58.8,99,76,51,30.08,29.92,10,4,21,0.00
2013-6-23,95.5,84.6,73.4,81.2,75.2,67.5,99,76,50,30.02,29.92,10,4,19,0.00
2013-6-24,98.6,85.5,74.8,80.8,77.2,73.9,99,78,52,30.06,29.92,12,5,19,0.00
2013-6-25,99.3,86.7,76.1,80.1,76.7,72.4,99,75,47,30.03,29.89,14,5,24,0.00
2013-6-26,100.9,86.8,75.4,83.8,77.9,74.2,99,77,49,30.02,29.90,10,4,20,0.00
2013-6-27,104.9,87.6,73.8,80.4,74.5,65.5,99,70,33,30.07,29.93,8,2,17,0.00
2013-6-28,108.7,88.9,70.9,81.2,75.1,65.3,99,68,39,30.03,29.85,7,1,14,0.00
2013-6-29,105.8,90.0,69.4,81.0,74.4,57.3,99,64,38,29.99,29.80,8,2,13,17.35
2013-6-30,99.9,85.3,71.2,78.8,72.2,64.3,99,66,44,30.10,29.89,6,2,15,0.01
2013-7-1,89.6,78.7,62.6,67.9,62.2,55.6,79,59,36,30.08,29.98,10,2,23,0.00
2013-7-2,94.6,76.7,57.9,68.5,57.8,47.3,96,57,29,30.14,30.02,8,1,14,0.00
2013-7-3,97.2,75.9,54.1,68.4,56.3,48.0,92,55,30,30.10,29.96,9,1,19,0.00
2013-7-4,97.2,79.9,63.9,74.3,64.2,51.7,99,62,34,30.06,29.94,6,1,11,0.00
2013-7-5,100.4,85.5,59.7,75.9,68.7,59.5,99,61,37,30.05,29.89,8,2,14,0.00
2013-7-6,99.1,85.6,65.3,78.3,72.6,65.0,99,68,42,30.00,29.88,8,2,19,0.00
2013-7-7,100.2,85.5,69.1,82.6,76.8,68.8,99,78,47,30.04,29.93,9,2,19,0.00
2013-7-8,87.8,79.4,72.7,83.6,77.9,72.4,99,95,77,30.17,30.03,8,2,14,0.61
2013-7-9,99.5,85.8,72.3,82.5,77.6,72.1,99,79,50,30.21,30.05,8,3,15,0.00
2013-7-10,102.4,87.7,72.1,82.8,77.9,71.9,99,76,48,30.15,29.97,10,2,17,0.00
2013-7-11,103.3,88.1,74.7,83.3,76.6,69.0,99,72,41,30.07,29.92,8,2,16,0.00
2013-7-12,102.4,89.3,74.1,81.4,74.8,69.8,98,65,43,30.03,29.93,9,2,16,0.00
2013-7-13,104.7,89.8,70.9,79.4,74.0,69.9,99,63,40,30.05,29.90,8,1,14,0.00
2013-7-14,93.9,78.5,68.2,75.4,71.0,67.7,99,79,54,30.01,29.92,15,3,24,0.07
2013-7-15,76.3,69.3,66.6,73.2,69.0,61.6,99,99,99,30.09,29.96,8,2,15,2.66
2013-7-16,90.0,75.2,68.7,84.5,74.3,68.5,99,97,77,30.20,30.07,8,2,17,0.24
2013-7-17,88.3,74.6,69.8,82.8,73.8,69.5,99,97,80,30.25,30.15,8,1,15,0.63
2013-7-18,96.1,80.7,69.6,83.2,75.9,69.4,99,87,58,30.23,30.05,7,1,12,0.01
2013-7-19,98.4,82.1,67.3,83.2,74.4,67.0,99,80,44,30.13,29.97,8,1,14,0.00
2013-7-20,97.5,83.2,72.1,82.8,77.4,71.9,99,85,55,30.06,29.90,8,2,15,0.00
2013-7-21,97.9,82.1,72.0,84.7,78.6,71.7,99,90,62,30.01,29.93,9,2,17,0.00
2013-7-22,96.6,84.1,75.2,84.7,79.0,75.0,99,86,66,30.02,29.94,8,3,17,0.00
2013-7-23,97.7,85.6,75.9,84.1,78.5,73.3,99,81,54,30.06,29.92,10,3,17,0.00
2013-7-24,99.0,85.1,74.3,86.1,80.4,73.9,99,87,62,30.06,29.94,9,2,14,0.00
2013-7-25,98.2,84.8,71.8,84.8,77.5,71.5,99,81,56,30.08,30.00,6,1,11,0.00
2013-7-26,102.2,86.3,74.7,84.6,79.3,74.4,99,81,53,30.08,29.92,7,2,14,0.21
2013-7-27,89.1,79.4,68.2,82.5,76.6,67.7,99,92,73,30.06,29.95,8,2,14,0.01
2013-7-28,96.8,81.2,67.5,86.0,76.7,67.0,99,87,63,30.02,29.90,6,1,12,0.00
2013-7-29,98.1,86.3,76.6,83.1,78.1,73.5,99,79,47,30.08,29.98,11,4,19,0.00
2013-7-30,98.6,85.5,74.5,83.4,78.3,73.7,99,81,53,30.14,30.02,11,4,17,0.00
2013-7-31,105.6,87.1,73.4,80.7,76.6,73.0,99,75,44,30.15,29.99,8,2,14,0.00
2013-8-1,105.4,87.8,71.2,82.9,77.2,71.0,99,74,46,30.09,29.95,4,1,11,0.00
2013-8-2,102.0,87.2,72.1,80.1,75.5,71.0,98,71,44,30.04,29.94,8,2,14,0.00
2013-8-3,99.9,87.1,74.8,82.6,77.6,73.9,99,76,50,30.07,29.99,8,3,13,0.00
2013-8-4,99.3,87.4,74.7,84.3,79.9,74.4,99,80,55,30.13,29.99,8,2,15,0.00
2013-8-5,102.0,87.9,73.0,82.2,77.3,72.8,99,74,47,30.09,29.93,8,3,16,0.00
2013-8-6,102.9,88.3,73.9,84.9,78.5,73.2,99,75,46,30.01,29.86,9,3,17,0.00
2013-8-7,103.8,88.6,75.0,86.1,78.8,69.7,99,76,44,29.99,29.84,8,3,19,0.00
2013-8-8,105.3,87.9,74.5,82.0,76.5,66.9,99,73,39,29.96,29.83,7,2,14,0.00
2013-8-9,103.5,86.5,71.2,82.9,73.8,64.5,99,70,36,30.03,29.92,8,2,14,0.00
2013-8-10,105.4,86.2,69.4,84.7,76.5,66.0,99,77,42,30.11,29.99,9,1,20,0.06
2013-8-11,99.0,84.8,72.1,86.1,78.4,71.9,99,83,53,30.14,30.01,9,2,21,0.01
2013-8-12,99.3,85.2,72.0,82.6,77.2,71.7,99,79,53,30.13,29.99,7,2,14,0.00
2013-8-13,104.5,88.7,73.2,82.1,77.1,70.8,99,72,41,30.09,29.94,8,2,13,0.00
2013-8-14,100.4,81.7,73.9,83.1,77.2,70.9,99,88,55,30.08,29.96,8,1,14,0.27
2013-8-15,92.3,78.3,71.2,83.9,76.5,71.0,99,95,74,30.09,29.98,6,1,12,0.24
2013-8-16,94.1,77.9,68.2,83.1,74.1,67.7,99,89,59,30.12,29.99,7,1,16,0.01
2013-8-17,94.8,77.8,63.5,78.9,70.5,63.2,99,81,51,30.12,30.00,9,1,15,0.00
2013-8-18,96.1,78.1,59.2,75.2,67.8,58.9,99,75,47,30.13,30.03,9,1,16,0.00
2013-8-19,98.1,79.5,61.3,78.3,69.6,59.5,99,75,46,30.11,29.97,7,1,12,0.00
2013-8-20,96.4,82.5,63.0,77.4,71.2,62.7,99,72,42,30.09,29.99,9,2,16,0.00
2013-8-21,98.1,82.9,69.6,82.1,76.0,69.4,99,82,53,30.14,30.02,8,2,12,0.00
2013-8-22,99.1,85.5,69.4,83.0,77.2,69.2,99,78,55,30.15,29.98,7,2,13,0.00
2013-8-23,99.5,85.1,69.3,84.1,75.5,69.0,99,76,48,30.09,29.95,8,1,14,0.00
2013-8-24,100.6,84.2,71.1,81.9,75.4,70.8,99,77,52,30.11,29.99,8,1,16,0.00
2013-8-25,95.0,83.2,67.5,83.2,75.5,67.2,99,79,58,30.15,30.07,11,2,22,0.00
2013-8-26,94.5,80.3,71.8,80.0,76.4,71.5,99,89,61,30.20,30.07,11,3,17,0.00
2013-8-27,86.7,77.1,68.4,82.5,74.9,68.1,99,93,71,30.18,30.07,6,2,11,0.02
2013-8-28,99.5,82.5,66.2,83.1,74.8,65.9,99,80,52,30.17,30.04,8,1,14,0.00
2013-8-29,104.4,85.5,68.9,80.7,74.5,68.6,99,73,45,30.15,30.00,6,1,11,0.00
2013-8-30,106.7,87.1,71.6,79.6,73.0,67.8,94,66,41,30.08,29.93,6,1,11,0.00
2013-8-31,106.3,88.3,70.7,81.2,75.8,69.4,99,69,43,30.00,29.86,8,1,11,0.00
2013-9-1,103.3,88.1,72.0,83.2,76.7,70.9,99,71,49,29.98,29.86,7,2,14,0.00
2013-9-2,100.8,86.2,73.0,83.2,77.6,72.4,99,77,53,30.04,29.89,8,2,14,0.01
2013-9-3,101.8,85.1,69.8,83.5,77.2,69.5,99,80,51,30.06,29.93,7,1,22,0.00
2013-9-4,102.9,86.4,73.9,83.5,77.9,73.7,99,79,49,30.12,29.99,8,2,14,0.02
2013-9-5,98.8,85.3,69.3,81.5,76.3,68.8,99,77,51,30.16,30.04,8,2,14,0.00
2013-9-6,98.4,84.7,67.3,83.0,75.5,67.0,99,77,49,30.15,30.00,8,1,14,0.00
2013-9-7,98.8,82.4,66.9,84.2,75.9,66.7,99,83,52,30.10,29.95,11,2,20,0.00
2013-9-8,95.7,78.5,65.7,81.9,74.1,65.4,99,88,58,30.06,29.92,8,1,14,0.04
2013-9-9,96.3,77.3,65.5,82.7,73.2,65.0,99,89,54,30.06,29.95,14,1,27,0.04
2013-9-10,93.6,76.6,69.1,82.5,74.3,68.8,99,93,67,30.13,30.03,8,2,19,0.14
2013-9-11,95.2,80.1,68.2,83.9,74.0,67.9,99,84,52,30.17,30.03,8,1,14,0.01
2013-9-12,97.3,81.4,64.6,83.2,73.6,64.3,99,80,49,30.13,29.97,8,1,13,0.00
2013-9-13,99.0,82.5,64.2,81.0,71.6,61.1,99,73,44,30.03,29.87,8,1,14,0.00
2013-9-14,97.7,83.9,67.8,77.8,73.3,67.6,99,74,49,30.00,29.89,8,2,18,0.00
2013-9-15,95.0,81.2,68.4,81.4,75.8,68.1,99,85,61,30.08,29.98,8,1,14,0.00
2013-9-16,93.6,78.2,66.0,82.5,74.6,65.8,99,90,65,30.14,30.00,8,2,16,0.84
2013-9-17,93.9,80.0,71.1,86.2,76.7,70.8,99,91,66,30.13,29.98,6,1,11,0.01
2013-9-18,95.2,81.3,68.0,83.7,75.8,67.7,99,85,58,30.08,29.93,7,1,12,0.00
2013-9-19,93.2,78.6,70.9,84.7,76.6,70.4,99,94,75,30.02,29.88,8,1,16,1.16
2013-9-20,81.3,72.8,69.3,75.5,72.5,69.0,99,99,99,29.94,29.86,10,2,23,2.01
2013-9-21,86.0,71.9,54.1,73.0,65.7,53.9,99,84,47,30.01,29.90,10,2,19,0.00
2013-9-22,86.7,67.3,50.4,69.0,58.8,50.1,99,79,41,29.98,29.84,7,1,13,0.00
2013-9-23,93.2,70.6,51.4,71.3,61.3,51.2,99,77,41,29.91,29.81,6,1,10,0.00
2013-9-24,97.7,76.3,56.3,77.8,67.4,56.0,99,78,46,29.99,29.88,7,0,13,0.00
2013-9-25,99.7,78.6,59.4,78.0,69.3,59.1,99,77,45,29.96,29.83,5,1,9,0.00
2013-9-26,92.7,78.6,61.9,76.8,68.8,60.6,97,75,42,29.95,29.86,9,2,19,0.00
2013-9-27,90.0,79.6,71.6,84.2,77.9,71.3,99,94,83,29.98,29.88,8,2,14,0.00
2013-9-28,91.6,79.3,70.9,85.3,78.2,70.4,99,96,80,30.07,29.91,9,3,17,0.46
2013-9-29,80.4,67.9,60.3,73.6,66.3,60.0,99,95,77,30.12,29.98,6,1,12,0.22
2013-9-30,93.4,72.0,53.8,76.5,64.0,53.5,99,80,42,30.01,29.85,4,0,8,0.00
2013-10-1,91.9,72.7,56.8,80.5,69.3,56.6,99,90,64,29.98,29.89,7,1,14,0.00
2013-10-2,92.8,79.8,72.3,83.5,76.9,71.9,99,92,70,30.02,29.90,7,2,14,0.00
2013-10-3,92.1,80.8,71.2,83.1,77.0,71.0,99,89,67,29.99,29.88,9,2,16,0.00
2013-10-4,92.7,79.6,71.4,81.2,76.0,71.2,99,89,68,29.96,29.88,9,3,17,0.00
2013-10-5,91.0,73.1,59.5,81.5,67.2,46.7,99,83,60,30.14,29.92,8,2,17,0.00
2013-10-6,82.4,64.1,46.0,60.7,51.8,45.8,99,71,31,30.19,30.10,8,2,17,0.05
2013-10-7,90.9,63.9,41.2,61.5,51.1,40.9,99,72,30,30.22,30.09,4,0,9,0.00
2013-10-8,88.2,65.3,43.3,65.1,54.3,43.1,99,73,40,30.14,30.02,6,1,10,0.00
2013-10-9,85.3,65.2,45.5,70.3,59.4,45.2,99,84,55,30.11,30.00,8,1,14,0.00
2013-10-10,86.9,69.0,51.4,75.5,65.1,51.0,99,88,66,30.09,29.93,8,2,16,0.00
2013-10-11,91.6,77.7,70.3,81.9,75.1,69.5,99,92,71,30.00,29.88,9,3,18,0.00
2013-10-12,94.3,80.9,72.1,84.6,77.7,71.0,99,91,68,30.09,29.94,8,2,16,0.00
2013-10-13,72.1,69.3,65.7,71.9,69.0,62.2,99,99,99,30.22,30.07,6,1,14,0.64
2013-10-14,70.0,70.0,70.0,69.7,69.7,69.7,99,99,99,30.20,30.20,1,1,7,0.00
2013-10-15,70.0,70.0,70.0,69.7,69.7,69.7,99,99,99,30.20,30.20,1,1,7,0.00
2013-10-16,70.0,67.4,54.0,69.7,66.7,51.6,99,97,90,30.20,30.06,3,1,7,1.36
2013-10-17,78.8,60.0,46.8,60.6,53.1,45.4,97,80,50,30.18,30.01,5,1,10,0.00
2013-10-18,70.5,61.6,49.8,66.3,59.2,48.7,99,92,85,30.09,29.93,9,1,20,0.00
2013-10-19,55.4,52.3,43.5,53.8,47.6,42.5,97,85,78,30.25,30.08,8,3,16,0.00
2013-10-20,54.1,54.1,54.1,47.4,47.4,47.4,78,78,78,30.25,30.25,4,4,11,0.00
2013-10-21,59.5,54.5,54.1,57.2,48.2,47.4,92,79,78,30.25,30.10,4,4,13,0.00
2013-10-22,79.3,61.1,44.8,57.2,51.4,44.5,99,75,39,30.22,30.11,8,1,14,0.00
2013-10-23,86.7,62.0,41.5,65.8,51.3,41.3,99,75,34,30.21,30.11,5,0,11,0.00
2013-10-24,87.8,62.3,42.1,64.4,52.2,41.8,99,76,37,30.27,30.15,5,1,10,0.00
2013-10-25,79.0,62.0,43.3,69.1,58.1,43.1,99,88,68,30.37,30.24,7,1,13,0.00
2013-10-26,81.7,68.7,61.7,73.3,65.5,60.3,97,90,75,30.26,30.08,9,2,21,0.00
2013-10-27,73.8,64.9,57.6,68.7,62.8,55.1,99,93,83,30.17,30.05,5,1,11,0.00
2013-10-28,81.3,71.1,62.8,75.7,68.3,61.9,98,91,78,30.12,30.01,8,2,17,0.00
2013-10-29,84.2,75.0,70.2,77.5,71.0,67.0,91,87,78,30.11,30.01,11,4,21,0.00
2013-10-30,86.2,75.0,69.4,80.5,72.4,66.9,99,92,81,30.08,29.85,8,2,16,0.27
2013-10-31,81.3,68.8,46.6,75.8,59.4,46.3,99,78,31,29.94,29.77,12,2,26,0.02
2013-11-1,85.6,62.1,41.0,63.8,49.9,40.6,99,70,32,30.13,29.86,9,2,20,0.00
2013-11-2,75.9,58.4,40.6,51.8,46.2,40.4,99,69,33,30.34,30.13,8,2,17,0.00
2013-11-3,71.2,53.3,33.1,57.8,45.1,32.8,99,77,45,30.27,30.02,8,2,18,0.00
2013-11-4,63.0,60.8,57.9,62.5,60.2,57.6,99,98,91,30.10,29.99,8,1,16,0.08
2013-11-5,80.1,69.7,62.6,74.8,67.5,62.3,99,93,83,30.06,29.93,8,2,14,0.01
2013-11-6,71.1,56.8,40.6,68.3,54.3,38.2,99,92,74,30.38,30.00,9,2,17,0.26
2013-11-7,67.8,51.0,37.8,49.4,43.8,36.5,96,79,47,30.51,30.38,8,1,17,0.00
2013-11-8,66.2,53.8,43.9,52.2,47.4,42.8,99,81,49,30.43,30.19,7,1,14,0.00
2013-11-9,69.3,60.3,53.8,64.2,57.2,50.1,94,89,84,30.22,30.13,8,1,14,0.00
2013-11-10,72.9,59.5,50.0,65.3,56.1,48.0,95,89,76,30.35,30.21,5,0,9,0.00
2013-11-11,82.2,58.8,41.9,67.1,53.6,41.3,98,85,56,30.32,30.19,5,0,8,0.00
2013-11-12,59.4,48.5,35.6,54.4,43.7,28.8,99,84,63,30.67,30.28,12,3,24,0.00
2013-11-13,59.7,39.3,25.3,38.6,30.6,24.5,99,74,40,30.68,30.41,6,1,12,0.00
2013-11-14,64.6,45.9,23.0,53.0,38.4,22.8,99,79,41,30.41,30.07,8,2,17,0.00
2013-11-15,81.9,63.2,43.5,68.9,58.3,42.5,98,85,61,30.08,29.88,8,2,14,0.00
2013-11-16,79.9,70.7,61.3,73.4,67.0,59.6,95,88,80,29.94,29.77,11,4,21,0.00
2013-11-17,91.9,73.9,51.4,79.2,66.1,50.3,97,79,43,30.00,29.81,7,2,14,0.00
2013-11-18,75.9,62.5,49.3,63.9,55.3,48.5,99,79,66,30.16,29.99,7,1,12,0.00
2013-11-19,73.4,58.7,43.3,55.3,50.5,43.1,99,77,49,30.20,30.03,8,1,13,0.00
2013-11-20,75.6,63.2,55.6,69.4,60.1,51.3,99,90,79,30.06,29.93,7,2,14,0.00
2013-11-21,80.1,71.2,64.6,76.2,68.9,61.9,99,92,83,30.11,29.95,9,2,17,0.66
2013-11-22,67.8,37.5,32.7,65.8,37.0,32.5,99,98,90,30.43,30.11,11,4,21,0.45
2013-11-23,39.7,36.0,33.1,39.0,35.6,32.8,99,99,96,30.51,30.41,10,4,20,0.06
2013-11-24,39.7,35.5,31.6,38.7,34.0,31.1,99,94,85,30.52,30.33,8,3,21,0.14
2013-11-25,38.1,35.2,32.0,37.0,34.2,31.3,99,96,88,30.36,30.12,7,1,14,0.32
2013-11-26,54.1,40.9,35.2,43.1,36.5,32.5,98,85,60,30.39,30.16,11,4,24,0.00
2013-11-27,53.6,38.1,26.8,33.1,29.3,25.6,98,74,39,30.51,30.37,8,2,14,0.00
2013-11-28,56.7,36.9,25.0,37.4,30.2,24.5,99,81,41,30.47,30.35,6,1,11,0.00
2013-11-29,66.2,46.4,23.5,54.6,42.9,23.1,99,89,65,30.52,30.37,6,1,11,0.00
2013-11-30,64.8,54.9,46.0,59.8,51.6,42.8,94,89,82,30.40,30.21,6,1,13,0.00
2013-12-1,74.1,62.7,55.2,66.9,58.7,51.7,92,87,76,30.22,29.97,8,2,14,0.00
2013-12-2,84.6,63.4,42.3,63.7,53.6,41.2,97,74,36,29.98,29.70,8,2,14,0.00
2013-12-3,88.3,62.2,41.0,62.0,50.7,40.5,99,72,31,29.74,29.62,7,1,14,0.00
2013-12-4,81.5,63.2,49.3,72.5,59.2,46.8,98,87,71,29.82,29.69,7,1,11,0.00
2013-12-5,61.3,38.9,27.9,60.6,35.5,26.1,99,88,74,30.14,29.81,10,4,22,0.00
2013-12-6,30.9,28.8,24.1,28.9,26.9,22.4,95,92,90,30.47,30.10,7,1,14,0.00
2013-12-7,27.3,24.0,21.7,24.4,22.1,19.8,95,92,87,30.50,30.29,9,3,17,0.00
2013-12-8,51.6,32.6,24.1,45.8,29.9,22.6,94,90,80,30.29,30.04,4,0,7,0.01
2013-12-9,36.1,33.2,29.3,33.6,29.3,25.3,91,86,80,30.41,30.07,8,2,15,0.04
2013-12-10,48.6,32.3,22.8,30.6,25.3,20.4,93,77,45,30.53,30.35,8,2,14,0.00
2013-12-11,61.0,39.2,20.8,39.9,30.8,18.7,93,74,42,30.58,30.34,4,0,9,0.00
2013-12-12,56.3,39.0,25.2,41.6,33.8,23.9,96,83,55,30.61,30.32,4,0,8,0.00
2013-12-13,53.8,44.0,39.0,45.2,41.4,36.3,97,90,85,30.32,29.91,6,1,11,0.20
2013-12-14,50.7,42.6,34.2,45.0,39.1,30.8,99,87,72,30.37,29.88,9,2,20,0.01
2013-12-15,66.0,42.4,25.7,45.0,33.2,23.5,94,74,39,30.41,30.28,5,0,11,0.00
2013-12-16,71.1,45.8,25.5,48.1,36.2,24.1,97,74,39,30.32,30.20,7,1,12,0.00
2013-12-17,78.8,47.9,27.9,50.2,37.8,26.8,99,74,32,30.34,30.25,5,0,11,0.00
2013-12-18,72.7,50.9,28.0,61.3,46.5,27.5,99,86,64,30.31,30.07,11,2,17,0.00
2013-12-19,73.6,63.8,54.3,66.0,59.4,52.1,94,86,76,30.07,29.82,20,5,33,0.00
2013-12-20,73.4,67.5,53.4,67.6,62.2,51.0,92,83,79,29.89,29.67,11,4,21,0.00
2013-12-21,67.8,48.9,39.6,60.7,45.3,35.7,97,88,59,29.86,29.62,10,2,21,0.47
2013-12-22,52.5,41.8,29.7,43.1,37.1,27.6,99,84,62,30.40,29.85,11,2,21,0.00
2013-12-23,60.3,37.0,23.4,37.7,29.9,22.5,99,80,39,30.55,30.39,6,0,10,0.00
2013-12-24,61.2,39.9,21.2,41.7,31.5,20.8,99,76,41,30.55,30.27,8,2,16,0.00
2013-12-25,65.8,47.2,32.0,55.4,43.8,31.7,99,88,69,30.43,30.26,10,1,14,0.00
2013-12-26,61.9,42.7,31.1,46.9,37.8,29.3,96,84,56,30.46,30.33,5,1,8,0.00
2013-12-27,61.3,45.5,33.3,46.7,39.7,32.2,98,82,46,30.46,30.34,5,1,9,0.00
2013-12-28,64.6,47.4,31.1,53.5,42.8,30.4,99,85,61,30.34,30.02,7,1,11,0.00
2013-12-29,59.7,45.1,29.8,56.8,43.1,29.0,99,93,83,30.32,29.98,8,2,17,0.00
2013-12-30,46.9,35.0,28.2,32.0,29.3,25.6,96,81,54,30.41,30.26,6,2,13,0.00
2013-12-31,59.9,40.2,27.3,38.6,32.4,26.3,99,77,42,30.48,30.25,6,1,11,0.00
2014-1-1,71.8,51.4,33.8,61.4,45.8,30.9,95,82,66,30.25,29.99,11,3,21,0.00
2014-1-2,52.5,37.4,21.9,42.0,28.6,20.5,95,73,43,30.48,30.16,11,3,18,0.00